createdAt,value
2023-02-04T00:00:58.036Z,1.52
2023-02-04T00:03:03.041Z,2.40
2023-02-04T00:05:12.546Z,2.67
2023-02-04T00:07:18.820Z,2.92
2023-02-04T00:09:23.738Z,2.55
2023-02-04T00:11:28.672Z,3.60
2023-02-04T00:13:34.280Z,2.45
2023-02-04T00:15:39.203Z,2.28
2023-02-04T00:17:44.291Z,2.75
2023-02-04T00:19:49.960Z,3.15
2023-02-04T00:21:57.445Z,2.85
2023-02-04T00:24:02.384Z,3.17
2023-02-04T00:26:08.083Z,2.70
2023-02-04T00:28:13.019Z,2.50
2023-02-04T00:30:18.343Z,1.95
2023-02-04T00:32:23.306Z,2.17
2023-02-04T00:34:29.101Z,3.13
2023-02-04T00:36:34.583Z,2.38
2023-02-04T00:38:42.079Z,2.40
2023-02-04T00:42:52.944Z,2.55
2023-02-04T00:44:58.411Z,2.45
2023-02-04T00:47:03.347Z,2.10
2023-02-04T00:49:11.323Z,2.55
2023-02-04T00:51:16.238Z,3.13
2023-02-04T00:53:21.469Z,2.80
2023-02-04T00:55:29.007Z,2.20
2023-02-04T00:57:33.908Z,3.67
2023-02-04T00:59:38.868Z,2.13
2023-02-04T01:01:44.046Z,2.08
2023-02-04T01:03:48.955Z,2.38
2023-02-04T01:05:54.724Z,3.65
2023-02-04T01:07:59.668Z,2.15
2023-02-04T01:10:05.416Z,2.17
2023-02-04T01:12:12.991Z,2.60
2023-02-04T01:14:18.000Z,2.70
2023-02-04T01:16:23.198Z,2.70
2023-02-04T01:18:28.549Z,2.50
2023-02-04T01:20:33.505Z,3.20
2023-02-04T01:22:39.503Z,2.90
2023-02-04T01:24:44.606Z,2.33
2023-02-04T01:27:08.400Z,2.70
2023-02-04T01:29:17.059Z,2.50
2023-02-04T01:31:22.334Z,3.10
2023-02-04T01:33:27.321Z,3.35
2023-02-04T01:35:32.258Z,2.45
2023-02-04T01:37:38.119Z,2.97
2023-02-04T01:39:43.038Z,2.38
2023-02-04T01:41:48.015Z,2.88
2023-02-04T01:43:53.504Z,2.75
2023-02-04T01:46:02.784Z,2.92
2023-02-04T01:48:11.356Z,2.85
2023-02-04T01:50:18.817Z,2.90
2023-02-04T01:52:24.970Z,2.85
2023-02-04T01:54:33.095Z,1.95
2023-02-04T01:56:38.323Z,3.80
2023-02-04T01:58:43.893Z,2.50
2023-02-04T02:00:49.484Z,2.80
2023-02-04T02:02:57.909Z,2.83
2023-02-04T02:05:02.835Z,2.33
2023-02-04T02:07:10.385Z,2.40
2023-02-04T02:09:15.708Z,2.28
2023-02-04T02:11:21.582Z,3.40
2023-02-04T02:13:27.224Z,2.45
2023-02-04T02:15:32.181Z,2.53
2023-02-04T02:17:38.414Z,3.00
2023-02-04T02:19:47.209Z,2.47
2023-02-04T02:22:03.581Z,2.40
2023-02-04T02:24:29.416Z,2.58
2023-02-04T02:26:34.994Z,3.17
2023-02-04T02:28:40.454Z,2.70
2023-02-04T02:30:46.965Z,3.72
2023-02-04T02:32:55.221Z,3.30
2023-02-04T02:35:00.207Z,3.33
2023-02-04T02:37:07.467Z,3.47
2023-02-04T02:39:12.651Z,2.90
2023-02-04T02:41:20.110Z,2.85
2023-02-04T02:43:30.037Z,3.63
2023-02-04T02:45:35.941Z,2.88
2023-02-04T02:47:41.994Z,2.63
2023-02-04T02:49:47.444Z,2.33
2023-02-04T02:51:52.981Z,3.05
2023-02-04T02:54:00.112Z,2.53
2023-02-04T02:56:05.962Z,1.88
2023-02-04T02:58:26.442Z,2.90
2023-02-04T03:00:33.455Z,2.75
2023-02-04T03:02:39.162Z,2.80
2023-02-04T03:04:48.523Z,2.80
2023-02-04T03:06:56.964Z,3.00
2023-02-04T03:09:02.287Z,2.78
2023-02-04T03:11:08.247Z,3.53
2023-02-04T03:13:18.590Z,2.60
2023-02-04T03:15:23.778Z,2.65
2023-02-04T03:17:28.937Z,2.67
2023-02-04T03:19:36.324Z,3.42
2023-02-04T03:21:42.405Z,3.25
2023-02-04T03:23:47.928Z,2.70
2023-02-04T03:25:52.917Z,3.20
2023-02-04T03:27:59.701Z,2.80
2023-02-04T03:30:09.790Z,2.47
2023-02-04T03:32:14.892Z,3.05
2023-02-04T03:34:19.896Z,3.67
2023-02-04T03:36:25.795Z,2.50
2023-02-04T03:38:31.715Z,2.78
2023-02-04T03:40:36.714Z,2.63
2023-02-04T03:42:42.073Z,2.58
2023-02-04T03:44:47.220Z,2.65
2023-02-04T03:46:55.614Z,2.25
2023-02-04T03:49:01.134Z,3.28
2023-02-04T03:51:06.287Z,2.40
2023-02-04T03:53:12.030Z,2.53
2023-02-04T03:55:17.339Z,3.30
2023-02-04T03:57:22.504Z,2.60
2023-02-04T03:59:27.469Z,2.92
2023-02-04T04:01:33.144Z,2.70
2023-02-04T04:03:40.731Z,2.65
2023-02-04T04:05:46.271Z,2.25
2023-02-04T04:07:51.556Z,3.08
2023-02-04T04:09:56.471Z,4.75
2023-02-04T04:12:04.560Z,2.53
2023-02-04T04:14:09.582Z,2.15
2023-02-04T04:16:15.048Z,2.08
2023-02-04T04:18:20.840Z,2.03
2023-02-04T04:20:29.226Z,2.78
2023-02-04T04:22:34.639Z,2.38
2023-02-04T04:24:41.543Z,2.22
2023-02-04T04:26:46.498Z,2.72
2023-02-04T04:28:51.920Z,2.17
2023-02-04T04:30:56.967Z,2.20
2023-02-04T04:33:02.742Z,2.78
2023-02-04T04:35:08.718Z,3.20
2023-02-04T04:37:16.322Z,2.63
2023-02-04T04:39:22.094Z,3.08
2023-02-04T04:41:27.899Z,2.38
2023-02-04T04:43:33.392Z,2.63
2023-02-04T04:45:38.571Z,3.00
2023-02-04T04:47:43.584Z,3.40
2023-02-04T04:49:49.561Z,2.55
2023-02-04T04:51:54.850Z,2.10
2023-02-04T04:54:02.872Z,2.17
2023-02-04T04:58:13.179Z,2.15
2023-02-04T05:00:21.466Z,2.15
2023-02-04T05:02:28.021Z,2.10
2023-02-04T05:04:33.334Z,2.83
2023-02-04T05:06:38.369Z,3.25
2023-02-04T05:08:43.348Z,2.33
2023-02-04T05:10:51.307Z,2.85
2023-02-04T05:12:56.649Z,3.50
2023-02-04T05:15:02.055Z,2.20
2023-02-04T05:17:07.516Z,2.90
2023-02-04T05:19:12.854Z,3.30
2023-02-04T05:21:18.441Z,3.63
2023-02-04T05:23:24.316Z,3.25
2023-02-04T05:25:30.072Z,3.00
2023-02-04T05:27:37.642Z,2.80
2023-02-04T05:29:42.856Z,2.97
2023-02-04T05:31:47.887Z,3.03
2023-02-04T05:33:52.869Z,2.45
2023-02-04T05:35:57.847Z,2.60
2023-02-04T05:38:02.899Z,3.13
2023-02-04T05:40:09.580Z,2.80
2023-02-04T05:42:14.528Z,3.03
2023-02-04T05:44:22.067Z,2.47
2023-02-04T05:46:27.736Z,2.83
2023-02-04T05:48:32.755Z,2.92
2023-02-04T05:50:38.465Z,2.40
2023-02-04T05:52:49.085Z,2.15
2023-02-04T05:54:54.019Z,2.15
2023-02-04T05:56:58.946Z,3.28
2023-02-04T05:59:03.867Z,2.70
2023-02-04T06:01:13.112Z,2.47
2023-02-04T06:03:19.605Z,2.65
2023-02-04T06:05:25.168Z,2.95
2023-02-04T06:07:33.566Z,2.78
2023-02-04T06:09:38.525Z,2.83
2023-02-04T06:11:43.721Z,2.20
2023-02-04T06:13:49.379Z,2.30
2023-02-04T06:15:54.276Z,3.55
2023-02-04T06:18:02.413Z,3.10
2023-02-04T06:20:09.207Z,2.45
2023-02-04T06:22:14.275Z,3.45
2023-02-04T06:24:19.335Z,2.17
2023-02-04T06:26:24.356Z,3.00
2023-02-04T06:28:29.345Z,2.70
2023-02-04T06:30:35.100Z,2.67
2023-02-04T06:32:40.877Z,2.17
2023-02-04T06:34:48.922Z,2.67
2023-02-04T06:36:54.060Z,2.60
2023-02-04T06:38:59.306Z,1.77
2023-02-04T06:41:04.466Z,1.90
2023-02-04T06:43:09.406Z,2.70
2023-02-04T06:45:14.793Z,2.22
2023-02-04T06:47:22.416Z,1.77
2023-02-04T06:49:28.725Z,2.28
2023-02-04T06:51:37.011Z,2.05
2023-02-04T06:53:44.194Z,2.45
2023-02-04T06:55:49.151Z,2.35
2023-02-04T06:57:54.074Z,2.10
2023-02-04T06:59:59.433Z,2.70
2023-02-04T07:02:05.182Z,2.05
2023-02-04T07:04:11.014Z,2.90
2023-02-04T07:06:16.291Z,2.90
2023-02-04T07:08:24.505Z,3.17
2023-02-04T07:10:31.062Z,2.42
2023-02-04T07:12:36.255Z,2.70
2023-02-04T07:14:41.397Z,2.97
2023-02-04T07:16:47.072Z,3.05
2023-02-04T07:18:52.007Z,2.35
2023-02-04T07:20:57.591Z,2.28
2023-02-04T07:23:02.550Z,2.50
2023-02-04T07:25:11.561Z,3.45
2023-02-04T07:27:17.154Z,2.05
2023-02-04T07:29:26.129Z,2.78
2023-02-04T07:31:31.319Z,2.55
2023-02-04T07:33:37.789Z,2.60
2023-02-04T07:35:42.707Z,2.85
2023-02-04T07:37:48.046Z,2.20
2023-02-04T07:39:53.859Z,2.08
2023-02-04T07:42:01.542Z,2.10
2023-02-04T07:44:13.611Z,1.60
2023-02-04T07:46:18.611Z,1.33
2023-02-04T07:48:24.272Z,1.55
2023-02-04T07:50:29.928Z,1.40
2023-02-04T07:52:35.133Z,1.52
2023-02-04T07:54:40.304Z,1.35
2023-02-04T07:56:45.685Z,1.40
2023-02-04T07:58:53.278Z,1.05
2023-02-04T08:03:04.049Z,0.93
2023-02-04T08:05:11.301Z,1.08
2023-02-04T08:07:16.231Z,1.00
2023-02-04T08:09:21.163Z,1.15
2023-02-04T08:11:29.641Z,0.90
2023-02-04T08:13:34.640Z,2.35
2023-02-04T08:15:42.593Z,0.80
2023-02-04T08:17:48.763Z,1.08
2023-02-04T08:19:53.759Z,1.13
2023-02-04T08:24:06.623Z,1.30
2023-02-04T08:26:13.281Z,1.30
2023-02-04T08:28:18.414Z,1.40
2023-02-04T08:30:23.884Z,1.17
2023-02-04T08:32:31.462Z,1.60
2023-02-04T08:34:36.417Z,2.92
2023-02-04T08:36:41.709Z,1.65
2023-02-04T08:38:47.044Z,1.88
2023-02-04T08:40:52.106Z,2.45
2023-02-04T08:42:57.765Z,1.73
2023-02-04T08:45:04.244Z,5.90
2023-02-04T08:47:09.942Z,2.30
2023-02-04T08:49:17.710Z,4.95
2023-02-04T08:51:22.658Z,4.13
2023-02-04T08:53:28.060Z,4.20
2023-02-04T08:55:32.958Z,3.63
2023-02-04T08:57:38.245Z,2.55
2023-02-04T08:59:43.244Z,1.50
2023-02-04T09:01:51.134Z,1.98
2023-02-04T09:06:04.283Z,1.42
2023-02-04T09:10:14.112Z,1.83
2023-02-04T09:12:19.995Z,1.60
2023-02-04T09:14:25.022Z,1.80
2023-02-04T09:16:30.381Z,1.85
2023-02-04T09:18:35.491Z,1.40
2023-02-04T09:20:40.471Z,1.30
2023-02-04T09:22:48.126Z,1.20
2023-02-04T09:24:53.416Z,1.35
2023-02-04T09:26:58.450Z,1.30
2023-02-04T09:29:03.431Z,1.10
2023-02-04T09:31:09.112Z,2.80
2023-02-04T09:33:16.871Z,1.73
2023-02-04T09:35:22.265Z,1.48
2023-02-04T09:37:29.619Z,1.70
2023-02-04T09:39:37.555Z,2.05
2023-02-04T09:43:49.256Z,1.58
2023-02-04T09:45:56.196Z,1.33
2023-02-04T09:48:03.328Z,1.35
2023-02-04T09:50:12.433Z,1.13
2023-02-04T09:52:21.177Z,2.00
2023-02-04T09:54:28.077Z,1.10
2023-02-04T09:56:36.464Z,1.80
2023-02-04T09:58:41.522Z,2.22
2023-02-04T10:00:47.665Z,2.03
2023-02-04T10:02:53.432Z,2.55
2023-02-04T10:05:00.650Z,2.33
2023-02-04T10:07:05.564Z,1.70
2023-02-04T10:09:12.796Z,1.77
2023-02-04T10:11:20.494Z,1.20
2023-02-04T10:13:35.946Z,1.52
2023-02-04T10:15:41.774Z,1.30
2023-02-04T10:17:47.155Z,1.38
2023-02-04T10:19:53.055Z,1.40
2023-02-04T10:21:58.375Z,1.20
2023-02-04T10:24:06.615Z,1.35
2023-02-04T10:28:19.167Z,2.00
2023-02-04T10:30:33.730Z,1.40
2023-02-04T10:32:38.895Z,1.42
2023-02-04T10:34:44.886Z,1.30
2023-02-04T10:36:53.444Z,1.30
2023-02-04T10:39:04.099Z,7.25
2023-02-04T10:41:10.582Z,1.20
2023-02-04T10:43:20.547Z,1.50
2023-02-04T10:45:32.569Z,1.50
2023-02-04T10:47:37.502Z,1.10
2023-02-04T10:49:42.888Z,1.30
2023-02-04T10:51:48.910Z,1.10
2023-02-04T10:54:06.700Z,0.98
2023-02-04T10:56:24.763Z,1.00
2023-02-04T10:58:33.780Z,1.60
2023-02-04T11:00:41.604Z,1.33
2023-02-04T11:02:50.875Z,0.85
2023-02-04T11:04:56.318Z,1.85
2023-02-04T11:07:02.801Z,1.45
2023-02-04T11:09:08.034Z,0.98
2023-02-04T11:11:20.200Z,1.08
2023-02-04T11:13:28.613Z,0.70
2023-02-04T11:15:51.215Z,1.00
2023-02-04T11:18:07.304Z,1.00
2023-02-04T11:20:33.190Z,0.80
2023-02-04T11:22:49.491Z,0.90
2023-02-04T11:24:54.887Z,1.02
2023-02-04T11:27:22.335Z,1.20
2023-02-04T11:29:35.890Z,1.38
2023-02-04T11:32:03.624Z,1.40
2023-02-04T11:36:20.814Z,0.93
2023-02-04T11:38:30.381Z,1.00
2023-02-04T11:40:38.772Z,1.00
2023-02-04T11:42:45.211Z,1.20
2023-02-04T11:44:56.474Z,1.20
2023-02-04T11:47:10.180Z,1.15
2023-02-04T11:49:23.697Z,1.63
2023-02-04T11:51:34.578Z,6.35
2023-02-04T11:53:39.704Z,3.13
2023-02-04T11:55:50.021Z,1.73
2023-02-04T11:57:57.278Z,1.20
2023-02-04T12:02:20.350Z,0.80
2023-02-04T12:04:27.508Z,0.70
2023-02-04T12:06:35.254Z,0.80
2023-02-04T12:08:40.328Z,0.88
2023-02-04T12:10:53.175Z,7.68
2023-02-04T12:13:00.832Z,7.32
2023-02-04T12:15:18.145Z,6.13
2023-02-04T12:17:28.212Z,3.25
2023-02-04T12:19:33.151Z,3.65
2023-02-04T12:21:38.097Z,2.15
2023-02-04T12:23:43.720Z,3.58
2023-02-04T12:25:48.652Z,2.00
2023-02-04T12:27:54.969Z,2.45
2023-02-04T12:29:59.919Z,1.90
2023-02-04T12:32:04.880Z,2.50
2023-02-04T12:34:12.404Z,2.15
2023-02-04T12:36:17.360Z,2.72
2023-02-04T12:38:23.210Z,2.08
2023-02-04T12:40:28.152Z,1.52
2023-02-04T12:42:33.080Z,2.20
2023-02-04T12:44:38.198Z,1.80
2023-02-04T12:46:43.151Z,2.47
2023-02-04T12:48:48.782Z,1.83
2023-02-04T12:50:57.158Z,2.40
2023-02-04T12:53:02.917Z,1.80
2023-02-04T12:55:10.151Z,2.75
2023-02-04T12:57:20.073Z,1.38
2023-02-04T12:59:25.000Z,2.03
2023-02-04T13:01:30.299Z,2.30
2023-02-04T13:03:36.069Z,1.33
2023-02-04T13:05:41.579Z,1.48
2023-02-04T13:07:49.130Z,1.80
2023-02-04T13:09:54.473Z,1.45
2023-02-04T13:12:00.344Z,4.72
2023-02-04T13:14:05.562Z,2.10
2023-02-04T13:16:10.682Z,3.40
2023-02-04T13:18:17.362Z,3.60
2023-02-04T13:20:23.072Z,1.60
2023-02-04T13:22:28.070Z,1.70
2023-02-04T13:24:35.737Z,1.25
2023-02-04T13:26:41.144Z,2.03
2023-02-04T13:28:46.451Z,0.90
2023-02-04T13:30:51.832Z,3.60
2023-02-04T13:32:56.816Z,3.80
2023-02-04T13:35:03.080Z,2.40
2023-02-04T13:37:08.542Z,1.65
2023-02-04T13:39:13.923Z,1.60
2023-02-04T13:41:21.586Z,1.10
2023-02-04T13:43:26.858Z,1.05
2023-02-04T13:45:32.527Z,1.00
2023-02-04T13:47:37.616Z,2.50
2023-02-04T13:49:43.764Z,5.70
2023-02-04T13:51:48.675Z,4.22
2023-02-04T13:53:53.652Z,3.13
2023-02-04T13:55:58.578Z,2.03
2023-02-04T13:58:06.073Z,1.55
2023-02-04T14:02:18.291Z,1.27
2023-02-04T14:04:23.754Z,0.80
2023-02-04T14:06:33.451Z,1.38
2023-02-04T14:08:39.400Z,0.88
2023-02-04T14:10:44.378Z,1.00
2023-02-04T14:12:49.672Z,1.20
2023-02-04T14:14:57.586Z,0.90
2023-02-04T14:19:10.128Z,0.82
2023-02-04T14:21:15.082Z,8.75
2023-02-04T14:23:20.003Z,7.47
2023-02-04T14:25:25.911Z,1.35
2023-02-04T14:27:31.698Z,1.70
2023-02-04T14:29:37.342Z,1.05
2023-02-04T14:31:45.190Z,0.93
2023-02-04T14:33:51.088Z,0.68
2023-02-04T14:35:56.114Z,0.90
2023-02-04T14:38:01.057Z,0.90
2023-02-04T14:40:06.716Z,1.00
2023-02-04T14:42:11.943Z,1.05
2023-02-04T14:44:20.703Z,1.20
2023-02-04T14:46:25.800Z,1.10
2023-02-04T14:48:34.341Z,1.02
2023-02-04T14:50:39.704Z,1.52
2023-02-04T14:52:45.090Z,1.55
2023-02-04T14:54:50.062Z,1.25
2023-02-04T14:56:55.755Z,0.95
2023-02-04T14:59:00.810Z,1.08
2023-02-04T15:01:06.118Z,1.60
2023-02-04T15:03:11.940Z,1.25
2023-02-04T15:05:19.807Z,1.30
2023-02-04T15:07:24.772Z,1.17
2023-02-04T15:09:29.734Z,1.10
2023-02-04T15:11:35.069Z,1.00
2023-02-04T15:13:42.550Z,1.30
2023-02-04T15:15:47.876Z,1.25
2023-02-04T15:17:53.518Z,1.05
2023-02-04T15:19:58.438Z,0.90
2023-02-04T15:22:07.906Z,0.80
2023-02-04T15:24:12.994Z,1.05
2023-02-04T15:26:18.048Z,0.80
2023-02-04T15:28:22.980Z,1.02
2023-02-04T15:30:27.992Z,1.20
2023-02-04T15:32:33.007Z,0.80
2023-02-04T15:34:40.755Z,2.10
2023-02-04T15:36:46.034Z,4.38
2023-02-04T15:38:53.605Z,4.03
2023-02-04T15:40:59.326Z,3.08
2023-02-04T15:43:04.329Z,2.75
2023-02-04T15:45:10.476Z,1.67
2023-02-04T15:47:16.228Z,4.78
2023-02-04T15:49:21.154Z,1.58
2023-02-04T15:51:26.528Z,1.60
2023-02-04T15:53:31.867Z,2.00
2023-02-04T15:55:39.361Z,2.15
2023-02-04T15:57:45.063Z,2.60
2023-02-04T15:59:50.248Z,2.60
2023-02-04T16:01:55.567Z,4.63
2023-02-04T16:04:01.142Z,4.20
2023-02-04T16:06:07.170Z,4.25
2023-02-04T16:08:12.488Z,2.63
2023-02-04T16:10:30.031Z,2.30
2023-02-04T16:12:41.301Z,2.22
2023-02-04T16:16:51.002Z,1.40
2023-02-04T16:18:56.327Z,1.50
2023-02-04T16:21:01.770Z,2.58
2023-02-04T16:23:07.229Z,3.03
2023-02-04T16:25:12.325Z,2.72
2023-02-04T16:27:17.319Z,3.58
2023-02-04T16:29:25.194Z,3.22
2023-02-04T16:33:36.084Z,3.22
2023-02-04T16:36:02.004Z,2.67
2023-02-04T16:38:06.929Z,2.42
2023-02-04T16:40:16.426Z,1.85
2023-02-04T16:42:22.539Z,1.67
2023-02-04T16:44:30.898Z,1.95
2023-02-04T16:46:35.903Z,2.42
2023-02-04T16:48:40.899Z,2.38
2023-02-04T16:50:48.015Z,2.67
2023-02-04T16:52:53.729Z,2.83
2023-02-04T16:54:59.097Z,2.28
2023-02-04T16:57:05.015Z,2.90
2023-02-04T16:59:09.939Z,3.00
2023-02-04T17:01:19.359Z,2.15
2023-02-04T17:03:25.801Z,1.70
2023-02-04T17:05:31.372Z,2.15
2023-02-04T17:07:37.280Z,2.60
2023-02-04T17:09:42.424Z,2.45
2023-02-04T17:11:51.539Z,2.42
2023-02-04T17:13:56.495Z,2.22
2023-02-04T17:16:02.014Z,1.42
2023-02-04T17:20:18.705Z,1.65
2023-02-04T17:22:24.310Z,1.60
2023-02-04T17:24:29.736Z,1.55
2023-02-04T17:26:37.726Z,1.90
2023-02-04T17:30:49.293Z,1.50
2023-02-04T17:32:54.938Z,1.40
2023-02-04T17:35:04.311Z,1.80
2023-02-04T17:37:12.543Z,1.52
2023-02-04T17:39:18.021Z,2.00
2023-02-04T17:41:22.983Z,1.63
2023-02-04T17:43:28.797Z,1.67
2023-02-04T17:47:41.880Z,1.88
2023-02-04T17:49:48.196Z,2.65
2023-02-04T17:51:56.428Z,2.40
2023-02-04T17:54:01.384Z,2.42
2023-02-04T17:56:09.586Z,1.90
2023-02-04T17:58:17.238Z,1.90
2023-02-04T18:00:26.888Z,2.50
2023-02-04T18:02:34.306Z,1.95
2023-02-04T18:04:41.553Z,1.90
2023-02-04T18:06:47.332Z,2.42
2023-02-04T18:09:01.289Z,2.30
2023-02-04T18:11:20.535Z,2.33
2023-02-04T18:13:28.364Z,2.40
2023-02-04T18:15:35.230Z,2.20
2023-02-04T18:17:40.790Z,1.83
2023-02-04T18:19:46.299Z,2.28
2023-02-04T18:21:54.182Z,3.30
2023-02-04T18:26:18.934Z,3.95
2023-02-04T18:28:25.420Z,3.33
2023-02-04T18:30:32.311Z,2.70
2023-02-04T18:32:42.880Z,2.30
2023-02-04T18:34:50.096Z,2.45
2023-02-04T18:36:55.238Z,2.28
2023-02-04T18:39:04.046Z,2.45
2023-02-04T18:41:51.821Z,2.50
2023-02-04T18:44:04.854Z,2.53
2023-02-04T18:46:25.341Z,2.35
2023-02-04T18:49:07.439Z,4.10
2023-02-04T18:51:24.919Z,3.10
2023-02-04T18:53:31.391Z,3.42
2023-02-04T18:55:40.951Z,4.57
2023-02-04T18:57:46.100Z,4.90
2023-02-04T18:59:51.372Z,3.60
2023-02-04T19:01:56.493Z,3.80
2023-02-04T19:04:04.066Z,3.85
2023-02-04T19:06:29.442Z,4.00
2023-02-04T19:08:45.546Z,4.07
2023-02-04T19:10:54.117Z,3.40
2023-02-04T19:13:16.160Z,3.10
2023-02-04T19:15:40.036Z,3.90
2023-02-04T19:17:45.276Z,4.22
2023-02-04T19:20:00.845Z,4.20
2023-02-04T19:22:21.279Z,4.95
2023-02-04T19:24:30.055Z,5.15
2023-02-04T19:26:45.885Z,5.75
2023-02-04T19:28:51.736Z,4.05
2023-02-04T19:31:03.269Z,4.10
2023-02-04T19:33:19.347Z,4.22
2023-02-04T19:35:27.214Z,4.22
2023-02-04T19:37:42.070Z,4.85
2023-02-04T19:39:47.074Z,4.78
2023-02-04T19:41:57.973Z,4.95
2023-02-04T19:44:40.306Z,4.80
2023-02-04T19:46:47.263Z,4.32
2023-02-04T19:48:53.300Z,4.95
2023-02-04T19:50:58.227Z,4.45
2023-02-04T19:53:05.558Z,3.85
2023-02-04T19:55:31.988Z,4.37
2023-02-04T19:57:39.988Z,4.67
2023-02-04T19:59:44.962Z,5.00
2023-02-04T20:01:49.889Z,5.50
2023-02-04T20:03:55.302Z,4.97
2023-02-04T20:06:04.497Z,4.60
2023-02-04T20:08:40.593Z,5.47
2023-02-04T20:10:45.644Z,5.53
2023-02-04T20:12:54.898Z,5.78
2023-02-04T20:15:00.619Z,5.00
2023-02-04T20:17:37.260Z,4.97
2023-02-04T20:19:42.563Z,5.50
2023-02-04T20:21:48.840Z,5.45
2023-02-04T20:23:53.919Z,6.13
2023-02-04T20:25:59.329Z,6.05
2023-02-04T20:28:23.461Z,6.70
2023-02-04T20:30:31.549Z,6.45
2023-02-04T20:32:41.322Z,5.82
2023-02-04T20:34:46.726Z,6.03
2023-02-04T20:36:53.382Z,6.53
2023-02-04T20:39:29.401Z,5.97
2023-02-04T20:41:39.802Z,5.00
2023-02-04T20:43:48.066Z,4.93
2023-02-04T20:45:57.421Z,4.72
2023-02-04T20:48:13.241Z,5.22
2023-02-04T20:50:41.327Z,5.25
2023-02-04T20:53:29.884Z,5.22
2023-02-04T20:55:36.749Z,5.00
2023-02-04T20:57:41.804Z,5.43
2023-02-04T20:59:49.716Z,5.22
2023-02-04T21:01:56.141Z,5.40
2023-02-04T21:04:01.214Z,6.07
2023-02-04T21:06:19.803Z,5.60
2023-02-04T21:08:32.166Z,6.07
2023-02-04T21:10:37.060Z,6.85
2023-02-04T21:12:45.810Z,5.00
2023-02-04T21:14:53.544Z,5.93
2023-02-04T21:16:59.409Z,5.60
2023-02-04T21:19:04.390Z,4.85
2023-02-04T21:21:11.791Z,5.88
2023-02-04T21:23:18.201Z,6.85
2023-02-04T21:25:23.133Z,6.97
2023-02-04T21:27:28.382Z,6.60
2023-02-04T21:29:33.301Z,8.25
2023-02-04T21:31:41.057Z,7.38
2023-02-04T21:33:46.001Z,7.82
2023-02-04T21:35:51.309Z,7.55
2023-02-04T21:37:58.695Z,6.57
2023-02-04T21:40:04.050Z,6.90
2023-02-04T21:42:15.106Z,6.80
2023-02-04T21:44:20.780Z,6.35
2023-02-04T21:46:25.819Z,6.75
2023-02-04T21:48:33.581Z,6.75
2023-02-04T21:50:41.294Z,7.13
2023-02-04T21:52:46.968Z,8.00
2023-02-04T21:54:51.929Z,7.55
2023-02-04T21:56:56.841Z,7.30
2023-02-04T21:59:02.171Z,7.03
2023-02-04T22:01:07.401Z,7.70
2023-02-04T22:03:15.846Z,7.53
2023-02-04T22:05:24.431Z,7.90
2023-02-04T22:07:30.010Z,7.85
2023-02-04T22:09:34.949Z,8.05
2023-02-04T22:11:40.851Z,7.15
2023-02-04T22:13:45.954Z,7.30
2023-02-04T22:15:51.371Z,7.35
2023-02-04T22:17:57.313Z,7.50
2023-02-04T22:20:02.823Z,7.82
2023-02-04T22:22:10.314Z,7.82
2023-02-04T22:26:21.712Z,7.13
2023-02-04T22:28:26.820Z,6.65
2023-02-04T22:30:31.842Z,7.40
2023-02-04T22:32:37.906Z,6.97
2023-02-04T22:34:43.133Z,7.72
2023-02-04T22:36:48.061Z,7.53
2023-02-04T22:43:08.853Z,6.13
2023-02-04T22:45:14.359Z,7.15
2023-02-04T22:47:19.330Z,6.95
2023-02-04T22:49:24.561Z,7.25
2023-02-04T22:51:29.530Z,7.07
2023-02-04T22:53:34.453Z,6.70
2023-02-04T22:55:42.402Z,7.13
2023-02-04T22:59:52.565Z,6.97
2023-02-04T23:01:58.410Z,7.70
2023-02-04T23:04:04.152Z,7.10
2023-02-04T23:06:09.482Z,7.03
2023-02-04T23:08:14.846Z,7.63
2023-02-04T23:10:19.961Z,7.20
2023-02-04T23:12:27.841Z,7.38
2023-02-04T23:14:33.738Z,7.65
2023-02-04T23:16:38.828Z,7.18
2023-02-04T23:18:44.137Z,7.60
2023-02-04T23:20:49.895Z,7.40
2023-02-04T23:22:54.836Z,7.63
2023-02-04T23:25:00.669Z,7.82
2023-02-04T23:27:07.186Z,7.82
2023-02-04T23:29:14.675Z,7.53
2023-02-04T23:31:20.442Z,7.40
2023-02-04T23:33:25.567Z,7.00
2023-02-04T23:35:31.243Z,6.82
2023-02-04T23:37:37.318Z,7.25
2023-02-04T23:39:42.619Z,6.45
2023-02-04T23:41:47.588Z,7.60
2023-02-04T23:43:52.897Z,6.68
2023-02-04T23:46:00.667Z,7.43
2023-02-04T23:48:05.836Z,7.53
2023-02-04T23:50:12.314Z,7.15
2023-02-04T23:52:17.690Z,6.70
2023-02-04T23:54:23.889Z,7.30
2023-02-04T23:56:28.844Z,6.82
2023-02-04T23:58:34.465Z,8.40
